Time;durP1;ratioP1;P1;durP2;ratioP2;P2;SDS_P1;SDS_P2;PMS_P1;PMS_P2;Temp;Humidity;BMP_temperature;BMP_pressure;BME280_temperature;BME280_humidity;BME280_pressure;Samples;Min_cycle;Max_cycle;Signal;HPM_P1;HPM_P2
2022/01/25 00:08:54;;;;;;;16.55;11.90;;;3.50;99.90;;;;;;4984669;28;20411;-72
2022/01/25 00:25:30;;;;;;;18.75;13.30;;;3.40;99.90;;;;;;4982607;28;20037;-72
2022/01/25 00:28:03;;;;;;;20.30;13.70;;;3.40;99.90;;;;;;4981411;28;20058;-72
2022/01/25 00:30:45;;;;;;;20.48;14.60;;;3.40;99.90;;;;;;4984324;28;20042;-72
2022/01/25 00:33:10;;;;;;;23.67;14.85;;;3.30;99.90;;;;;;4983563;28;20101;-72
2022/01/25 00:35:36;;;;;;;20.33;14.55;;;3.40;99.90;;;;;;4989328;28;20470;-72
2022/01/25 00:38:02;;;;;;;20.67;15.07;;;3.40;99.90;;;;;;4987139;28;20462;-73
2022/01/25 00:40:27;;;;;;;21.55;14.82;;;3.40;99.90;;;;;;4983192;28;20506;-72
2022/01/25 00:42:53;;;;;;;20.67;14.32;;;3.30;99.90;;;;;;4983071;28;20034;-72
2022/01/25 00:45:20;;;;;;;20.25;14.85;;;3.30;99.90;;;;;;4981436;28;20038;-72
2022/01/25 00:47:49;;;;;;;20.00;15.00;;;3.30;99.90;;;;;;4977926;28;20097;-72
2022/01/25 00:50:15;;;;;;;19.83;14.10;;;3.30;99.90;;;;;;4984164;28;20619;-72
2022/01/25 00:55:12;;;;;;;23.42;15.02;;;3.30;99.90;;;;;;4977887;28;20030;-72
2022/01/25 00:57:38;;;;;;;22.38;14.85;;;3.30;99.90;;;;;;4970447;28;20107;-72
2022/01/25 01:00:07;;;;;;;23.00;15.88;;;3.30;99.90;;;;;;4984037;28;20470;-72
2022/01/25 01:02:33;;;;;;;25.00;15.82;;;3.30;99.90;;;;;;4982668;28;20038;-72
2022/01/25 01:04:58;;;;;;;23.63;15.80;;;3.30;99.90;;;;;;4983692;28;20027;-72
2022/01/25 01:07:25;;;;;;;21.17;15.20;;;3.20;99.90;;;;;;4981345;28;20505;-72
2022/01/25 01:09:52;;;;;;;24.83;15.85;;;3.20;99.90;;;;;;4988498;28;20398;-72
2022/01/25 01:31:11;;;;;;;20.83;14.30;;;3.20;99.90;;;;;;4958279;28;20041;-72
2022/01/25 01:43:56;;;;;;;23.83;16.20;;;3.20;99.90;;;;;;4965361;28;20513;-72
2022/01/25 01:46:41;;;;;;;22.58;15.93;;;3.30;99.90;;;;;;4961777;28;20042;-72
2022/01/25 01:49:10;;;;;;;22.85;15.85;;;3.30;99.90;;;;;;4966848;28;20026;-73
2022/01/25 01:51:39;;;;;;;26.48;16.70;;;3.30;99.90;;;;;;4962570;28;20034;-72
2022/01/25 01:54:14;;;;;;;22.65;16.52;;;3.30;99.90;;;;;;4957826;28;20046;-72
2022/01/25 01:56:41;;;;;;;26.17;17.20;;;3.20;99.90;;;;;;4965754;28;20038;-72
2022/01/25 01:59:11;;;;;;;23.35;16.83;;;3.20;99.90;;;;;;4964650;28;20468;-73
2022/01/25 02:01:39;;;;;;;26.30;17.70;;;3.20;99.90;;;;;;4965105;28;20038;-72
2022/01/25 02:04:07;;;;;;;25.90;16.08;;;3.20;99.90;;;;;;4963556;28;20055;-72
2022/01/25 02:06:33;;;;;;;22.60;15.70;;;3.20;99.90;;;;;;4962573;28;20022;-72
2022/01/25 02:08:59;;;;;;;26.10;15.95;;;3.20;99.90;;;;;;4965198;28;20085;-73
2022/01/25 02:11:25;;;;;;;25.50;17.42;;;3.20;99.90;;;;;;4966585;28;20546;-73
2022/01/25 02:13:51;;;;;;;24.08;16.23;;;3.20;99.90;;;;;;4952650;28;20484;-72
2022/01/25 02:16:34;;;;;;;24.65;16.83;;;3.20;99.90;;;;;;4966088;28;20038;-72
2022/01/25 02:24:30;;;;;;;24.77;16.08;;;3.10;99.90;;;;;;4966788;28;20097;-72
2022/01/25 02:26:57;;;;;;;25.58;16.70;;;3.10;99.90;;;;;;4963241;28;20031;-72
2022/01/25 02:29:24;;;;;;;25.42;16.33;;;3.10;99.90;;;;;;4969726;28;20074;-73
2022/01/25 02:31:49;;;;;;;21.73;16.20;;;3.10;99.90;;;;;;4985929;28;20033;-72
2022/01/25 02:34:15;;;;;;;24.85;16.25;;;3.10;99.90;;;;;;4979341;28;20038;-72
2022/01/25 02:36:41;;;;;;;24.65;16.85;;;3.10;99.90;;;;;;4983301;28;20061;-72
2022/01/25 02:39:06;;;;;;;25.48;16.90;;;3.10;99.90;;;;;;4980084;28;20027;-72
2022/01/25 02:41:33;;;;;;;22.17;15.88;;;3.10;99.90;;;;;;4977875;28;20054;-72
2022/01/25 02:43:59;;;;;;;25.70;16.48;;;3.10;99.90;;;;;;4980658;28;20384;-72
2022/01/25 02:49:02;;;;;;;24.83;17.73;;;3.10;99.90;;;;;;4973735;28;20061;-72
2022/01/25 02:51:31;;;;;;;22.83;16.48;;;3.10;99.90;;;;;;4971856;28;20133;-72
2022/01/25 02:53:57;;;;;;;23.85;16.63;;;3.10;99.90;;;;;;4984721;28;20026;-72
2022/01/25 02:56:24;;;;;;;23.90;16.33;;;3.20;99.90;;;;;;4982989;28;20022;-72
2022/01/25 02:58:50;;;;;;;24.00;15.18;;;3.20;99.90;;;;;;4986488;28;20065;-72
2022/01/25 03:01:17;;;;;;;27.42;17.23;;;3.10;99.90;;;;;;4981096;28;20027;-72
2022/01/25 03:03:43;;;;;;;23.30;16.40;;;3.10;99.90;;;;;;4983879;28;20042;-72
2022/01/25 03:06:09;;;;;;;25.90;17.08;;;3.10;99.90;;;;;;4986617;28;20033;-72
2022/01/25 03:08:35;;;;;;;28.00;17.13;;;3.10;99.90;;;;;;4988486;28;20014;-72
2022/01/25 03:11:01;;;;;;;26.63;17.42;;;3.10;99.90;;;;;;4986176;28;20473;-72
2022/01/25 03:13:33;;;;;;;25.83;17.10;;;3.20;99.90;;;;;;4988606;28;20029;-72
2022/01/25 03:16:04;;;;;;;24.17;16.08;;;3.10;99.90;;;;;;4986027;28;20041;-72
2022/01/25 03:21:04;;;;;;;25.48;17.38;;;3.10;99.90;;;;;;4978902;28;20069;-73
2022/01/25 03:23:31;;;;;;;29.13;17.85;;;3.10;99.90;;;;;;4985811;28;20030;-72
2022/01/25 03:25:57;;;;;;;27.25;16.95;;;3.10;99.90;;;;;;4986396;28;20110;-73
2022/01/25 03:28:24;;;;;;;27.27;18.13;;;3.10;99.90;;;;;;4986280;28;20042;-72
2022/01/25 03:30:50;;;;;;;26.05;17.00;;;3.10;99.90;;;;;;4984703;28;20034;-72
2022/01/25 03:33:16;;;;;;;27.02;17.98;;;3.00;99.90;;;;;;4985238;28;20042;-72
2022/01/25 03:35:43;;;;;;;30.10;19.10;;;3.00;99.90;;;;;;4983633;28;20034;-72
2022/01/25 03:38:09;;;;;;;28.40;17.60;;;3.10;99.90;;;;;;4980073;28;20034;-72
2022/01/25 03:40:35;;;;;;;26.95;18.15;;;3.10;99.90;;;;;;4989927;28;20023;-72
2022/01/25 03:43:03;;;;;;;29.02;18.20;;;3.10;99.90;;;;;;4976289;28;20372;-72
2022/01/25 03:45:31;;;;;;;27.33;17.08;;;3.10;99.90;;;;;;4985349;28;20308;-72
2022/01/25 03:50:40;;;;;;;25.42;17.00;;;3.10;99.90;;;;;;4980462;28;20031;-72
2022/01/25 03:53:07;;;;;;;24.20;16.13;;;3.10;99.90;;;;;;4978782;28;20044;-72
2022/01/25 03:55:33;;;;;;;23.67;16.27;;;3.10;99.90;;;;;;4983100;28;20455;-72
2022/01/25 03:57:59;;;;;;;28.42;17.92;;;3.10;99.90;;;;;;4987823;28;20084;-72
2022/01/25 04:00:25;;;;;;;28.33;18.40;;;3.10;99.90;;;;;;4972719;28;20082;-72
2022/01/25 04:02:56;;;;;;;26.52;17.45;;;3.10;99.90;;;;;;4989592;28;20375;-72
2022/01/25 04:05:23;;;;;;;24.42;17.10;;;3.10;99.90;;;;;;4983214;28;20027;-72
2022/01/25 04:07:50;;;;;;;32.65;18.38;;;3.10;99.90;;;;;;4986580;28;20027;-72
2022/01/25 04:10:20;;;;;;;31.05;19.15;;;3.10;99.90;;;;;;4981712;28;20038;-72
2022/01/25 04:12:46;;;;;;;28.95;17.45;;;3.10;99.90;;;;;;4975682;28;20026;-72
2022/01/25 04:15:12;;;;;;;27.10;16.75;;;3.10;99.90;;;;;;4983279;28;20045;-72
2022/01/25 04:17:39;;;;;;;26.20;16.38;;;3.10;99.90;;;;;;4986643;28;20038;-72
2022/01/25 04:25:21;;;;;;;30.05;17.48;;;3.10;99.90;;;;;;4984545;28;20406;-72
2022/01/25 04:27:47;;;;;;;26.13;16.30;;;3.00;99.90;;;;;;4970024;28;20027;-72
2022/01/25 04:30:13;;;;;;;24.85;16.15;;;3.00;99.90;;;;;;4978625;28;20042;-72
2022/01/25 04:32:44;;;;;;;24.30;16.42;;;2.90;99.90;;;;;;4985285;28;20391;-73
2022/01/25 04:35:26;;;;;;;28.42;16.90;;;2.90;99.90;;;;;;4979816;28;20495;-73
2022/01/25 04:49:02;;;;;;;33.35;17.80;;;3.00;99.90;;;;;;4986781;28;20133;-73
2022/01/25 04:51:48;;;;;;;27.73;17.42;;;3.00;99.90;;;;;;4976586;28;20042;-72
2022/01/25 04:54:25;;;;;;;28.33;16.50;;;3.00;99.90;;;;;;4983781;28;20030;-72
2022/01/25 04:59:31;;;;;;;25.42;16.63;;;2.90;99.90;;;;;;4987405;28;20026;-72
2022/01/25 05:02:05;;;;;;;28.10;17.27;;;2.90;99.90;;;;;;4977397;28;20034;-72
2022/01/25 05:04:37;;;;;;;25.90;16.40;;;2.90;99.90;;;;;;4982471;28;20498;-72
2022/01/25 05:07:18;;;;;;;26.20;17.83;;;2.90;99.90;;;;;;4981580;28;20423;-72
2022/01/25 05:09:45;;;;;;;27.70;18.23;;;2.90;99.90;;;;;;4976109;28;20057;-72
2022/01/25 05:12:12;;;;;;;26.73;17.13;;;2.90;99.90;;;;;;4986898;28;20027;-72
2022/01/25 05:14:54;;;;;;;26.15;15.77;;;2.90;99.90;;;;;;4983305;28;20080;-72
2022/01/25 05:17:29;;;;;;;29.17;15.73;;;2.90;99.90;;;;;;4981755;28;20057;-72
2022/01/25 05:22:29;;;;;;;28.98;17.00;;;2.80;99.90;;;;;;4983238;28;20023;-72
2022/01/25 05:24:55;;;;;;;26.67;16.33;;;2.80;99.90;;;;;;4981618;28;20040;-72
2022/01/25 05:27:26;;;;;;;30.42;16.98;;;2.80;99.90;;;;;;4985848;28;20109;-71
2022/01/25 05:29:52;;;;;;;26.45;17.15;;;2.80;99.90;;;;;;4970387;28;20051;-72
2022/01/25 05:32:18;;;;;;;27.73;17.00;;;2.80;99.90;;;;;;4955066;28;20027;-72
2022/01/25 05:34:43;;;;;;;27.83;17.45;;;2.80;99.90;;;;;;4966104;28;20034;-72
2022/01/25 05:37:09;;;;;;;29.20;17.42;;;2.80;99.90;;;;;;4967452;28;20481;-72
2022/01/25 05:39:37;;;;;;;28.58;16.60;;;2.70;99.90;;;;;;4966962;28;20022;-71
2022/01/25 05:42:41;;;;;;;30.58;16.00;;;2.70;99.90;;;;;;4964369;28;20045;-72
2022/01/25 05:45:26;;;;;;;29.98;17.27;;;2.70;99.90;;;;;;4965797;28;20039;-72
2022/01/25 05:47:52;;;;;;;31.58;16.92;;;2.80;99.90;;;;;;4962648;28;20035;-72
2022/01/25 05:50:17;;;;;;;27.30;16.67;;;2.80;99.90;;;;;;4964555;28;20037;-71
2022/01/25 05:52:43;;;;;;;28.27;17.02;;;2.70;99.90;;;;;;4963442;28;20035;-73
2022/01/25 05:55:10;;;;;;;30.23;17.65;;;2.70;99.90;;;;;;4965516;28;20042;-72
2022/01/25 05:57:36;;;;;;;33.38;18.25;;;2.70;99.90;;;;;;4963634;28;20042;-73
2022/01/25 06:00:05;;;;;;;27.75;17.63;;;2.60;99.90;;;;;;4977920;28;20035;-72
2022/01/25 06:02:32;;;;;;;26.80;16.75;;;2.60;99.90;;;;;;4962905;28;20039;-73
2022/01/25 06:04:57;;;;;;;24.85;15.93;;;2.60;99.90;;;;;;4958601;28;20038;-72
2022/01/25 06:07:23;;;;;;;27.42;16.00;;;2.60;99.90;;;;;;4957983;28;20039;-72
2022/01/25 06:09:49;;;;;;;35.10;21.35;;;2.60;99.90;;;;;;4955049;28;20031;-72
2022/01/25 06:12:14;;;;;;;31.40;18.17;;;2.70;99.90;;;;;;4956085;28;20039;-73
2022/01/25 06:14:40;;;;;;;30.08;17.05;;;2.70;99.90;;;;;;4956311;28;20118;-72
2022/01/25 06:17:06;;;;;;;29.10;17.30;;;2.70;99.90;;;;;;4955203;28;20061;-72
2022/01/25 06:19:32;;;;;;;29.75;17.38;;;2.70;99.90;;;;;;4955928;28;20031;-72
2022/01/25 06:21:57;;;;;;;31.27;18.42;;;2.70;99.90;;;;;;4956383;28;20030;-72
2022/01/25 06:24:23;;;;;;;30.60;17.02;;;2.70;99.90;;;;;;4952881;28;20472;-72
2022/01/25 06:26:48;;;;;;;29.90;17.10;;;2.70;99.90;;;;;;4965277;28;20114;-72
2022/01/25 06:29:17;;;;;;;33.63;18.95;;;2.70;99.90;;;;;;4964543;28;20546;-72
2022/01/25 06:31:43;;;;;;;31.40;18.98;;;2.60;99.90;;;;;;4978990;28;20100;-72
2022/01/25 06:34:09;;;;;;;32.85;19.17;;;2.60;99.90;;;;;;4972773;28;20042;-72
2022/01/25 06:36:34;;;;;;;30.50;18.33;;;2.60;99.90;;;;;;4968273;28;20121;-72
2022/01/25 06:39:00;;;;;;;29.50;17.83;;;2.60;99.90;;;;;;4984253;28;20590;-72
2022/01/25 06:41:27;;;;;;;29.25;17.33;;;2.60;99.90;;;;;;4983122;28;20062;-74
2022/01/25 06:43:53;;;;;;;31.48;17.02;;;2.60;99.90;;;;;;4980657;28;20459;-72
2022/01/25 06:46:18;;;;;;;29.60;17.30;;;2.60;99.90;;;;;;4987897;28;20134;-72
2022/01/25 06:48:44;;;;;;;28.55;16.88;;;2.60;99.90;;;;;;4970344;28;20034;-74
2022/01/25 06:51:10;;;;;;;36.67;22.27;;;2.60;99.90;;;;;;4983146;28;20616;-72
2022/01/25 06:53:35;;;;;;;28.85;16.63;;;2.60;99.90;;;;;;4976067;28;20037;-72
2022/01/25 06:56:04;;;;;;;29.73;16.42;;;2.60;99.90;;;;;;4973618;28;20185;-71
2022/01/25 06:58:30;;;;;;;30.60;17.23;;;2.50;99.90;;;;;;4980049;28;20549;-72
2022/01/25 07:00:55;;;;;;;31.45;17.85;;;2.50;99.90;;;;;;4975233;28;20078;-72
2022/01/25 07:03:21;;;;;;;30.13;16.95;;;2.60;99.90;;;;;;4977835;28;20022;-72
2022/01/25 07:05:46;;;;;;;28.27;16.52;;;2.50;99.90;;;;;;4978261;28;20031;-73
2022/01/25 07:08:12;;;;;;;28.65;16.02;;;2.50;99.90;;;;;;4982213;28;20023;-77
2022/01/25 07:10:38;;;;;;;30.65;16.73;;;2.50;99.90;;;;;;4982218;28;20038;-76
2022/01/25 07:13:03;;;;;;;30.27;16.45;;;2.50;99.90;;;;;;4979533;28;20034;-74
2022/01/25 07:15:29;;;;;;;25.63;15.38;;;2.50;99.90;;;;;;4987414;28;20049;-74
2022/01/25 07:17:55;;;;;;;33.05;17.40;;;2.50;99.90;;;;;;4979147;28;20026;-77
2022/01/25 07:20:20;;;;;;;31.13;17.10;;;2.50;99.90;;;;;;4984508;28;20035;-76
2022/01/25 07:22:46;;;;;;;30.38;16.55;;;2.50;99.90;;;;;;4989712;28;20459;-76
2022/01/25 07:25:12;;;;;;;30.27;16.17;;;2.60;99.90;;;;;;4981504;28;20221;-76
2022/01/25 07:27:38;;;;;;;28.38;16.88;;;2.70;99.90;;;;;;4985170;28;20027;-76
2022/01/25 07:30:05;;;;;;;24.05;15.05;;;2.70;99.90;;;;;;4974454;28;20057;-74
2022/01/25 07:32:31;;;;;;;27.13;15.50;;;2.70;99.90;;;;;;4987584;28;20449;-74
2022/01/25 07:34:56;;;;;;;28.30;16.98;;;2.70;99.90;;;;;;4972673;28;20090;-76
2022/01/25 07:37:22;;;;;;;30.83;16.65;;;2.70;99.90;;;;;;4987171;28;20030;-74
2022/01/25 07:39:48;;;;;;;29.23;17.40;;;2.60;99.90;;;;;;4980476;28;20030;-73
2022/01/25 07:42:15;;;;;;;28.67;16.67;;;2.60;99.90;;;;;;4986368;28;20109;-76
2022/01/25 07:44:41;;;;;;;33.92;17.55;;;2.60;99.90;;;;;;4989742;28;20022;-74
2022/01/25 07:47:08;;;;;;;30.55;16.85;;;2.60;99.90;;;;;;4985620;28;20541;-73
2022/01/25 07:49:34;;;;;;;28.90;17.23;;;2.60;99.90;;;;;;4986185;28;20030;-76
2022/01/25 07:52:00;;;;;;;28.20;17.23;;;2.50;99.90;;;;;;4986774;28;20030;-76
2022/01/25 07:54:26;;;;;;;33.13;17.42;;;2.60;99.90;;;;;;4986391;28;20022;-76
2022/01/25 07:56:53;;;;;;;30.50;16.75;;;2.50;99.90;;;;;;4984511;28;20118;-76
2022/01/25 07:59:19;;;;;;;31.48;17.33;;;2.50;99.90;;;;;;4975847;28;20030;-76
2022/01/25 08:01:45;;;;;;;29.05;16.70;;;2.50;99.90;;;;;;4980310;28;20030;-75
2022/01/25 08:04:13;;;;;;;30.40;17.52;;;2.50;99.90;;;;;;4984034;28;20033;-75
2022/01/25 08:06:39;;;;;;;28.23;15.63;;;2.50;99.90;;;;;;4986591;28;20030;-76
2022/01/25 08:09:06;;;;;;;32.40;16.27;;;2.50;99.90;;;;;;4984001;28;20387;-74
2022/01/25 08:11:32;;;;;;;27.67;16.60;;;2.50;99.90;;;;;;4986243;28;20358;-75
2022/01/25 08:14:12;;;;;;;29.00;16.50;;;2.50;99.90;;;;;;4982212;28;20506;-76
2022/01/25 08:16:40;;;;;;;25.92;14.52;;;2.50;99.90;;;;;;4979989;28;20030;-74
2022/01/25 08:19:06;;;;;;;25.30;14.38;;;2.60;99.90;;;;;;4987568;28;20121;-74
2022/01/25 08:21:32;;;;;;;29.08;16.35;;;2.60;99.90;;;;;;4986946;28;20491;-74
2022/01/25 08:23:58;;;;;;;28.45;16.05;;;2.60;99.90;;;;;;4985311;28;20092;-76
2022/01/25 08:26:23;;;;;;;31.08;17.48;;;2.60;99.90;;;;;;4983235;28;20061;-74
2022/01/25 08:28:49;;;;;;;30.58;17.65;;;2.70;99.90;;;;;;4980723;28;20105;-76
2022/01/25 08:31:14;;;;;;;31.27;17.05;;;2.70;99.90;;;;;;4974969;28;20027;-76
2022/01/25 08:33:40;;;;;;;30.80;16.67;;;2.70;99.90;;;;;;4979098;28;20122;-76
2022/01/25 08:36:06;;;;;;;27.25;16.08;;;2.70;99.90;;;;;;4978960;28;20031;-74
2022/01/25 08:38:32;;;;;;;30.00;15.82;;;2.70;99.90;;;;;;4974474;28;20030;-74
2022/01/25 08:40:57;;;;;;;22.40;13.05;;;2.60;99.90;;;;;;4978276;28;20081;-77
2022/01/25 08:43:24;;;;;;;23.45;12.18;;;2.60;99.90;;;;;;4979323;28;20030;-76
2022/01/25 08:45:50;;;;;;;23.98;12.52;;;2.70;99.90;;;;;;4978340;28;20022;-73
2022/01/25 08:48:16;;;;;;;23.27;12.02;;;2.80;99.90;;;;;;4982695;28;20762;-73
2022/01/25 08:50:42;;;;;;;22.73;11.48;;;2.90;99.90;;;;;;4983106;28;20475;-75
2022/01/25 08:53:09;;;;;;;20.30;11.95;;;2.90;99.90;;;;;;4983903;28;20061;-77
2022/01/25 08:55:35;;;;;;;19.38;10.90;;;3.00;99.90;;;;;;4984768;28;20061;-76
2022/01/25 08:58:01;;;;;;;20.42;12.07;;;3.10;99.90;;;;;;4980616;28;20026;-76
2022/01/25 09:00:26;;;;;;;18.88;10.60;;;3.10;99.90;;;;;;4982532;28;20387;-76
2022/01/25 09:02:52;;;;;;;14.98;8.98;;;3.10;99.90;;;;;;4979609;28;20030;-76
2022/01/25 09:05:18;;;;;;;14.32;8.10;;;3.00;99.90;;;;;;4988291;28;20030;-76
2022/01/25 09:07:44;;;;;;;11.38;6.82;;;3.00;99.90;;;;;;4978561;28;20085;-75
2022/01/25 09:10:10;;;;;;;15.00;7.63;;;2.90;99.90;;;;;;4983883;28;20022;-75
2022/01/25 09:12:35;;;;;;;19.23;8.15;;;2.90;99.90;;;;;;4982081;28;20034;-75
2022/01/25 09:15:01;;;;;;;14.55;7.13;;;2.90;99.90;;;;;;4979211;28;20058;-75
2022/01/25 09:17:27;;;;;;;12.55;7.18;;;2.90;99.90;;;;;;4976049;28;20026;-75
2022/01/25 09:19:52;;;;;;;11.55;6.22;;;2.80;99.90;;;;;;4985010;28;20113;-75
2022/01/25 09:22:19;;;;;;;10.70;6.40;;;2.80;99.90;;;;;;4980219;28;20037;-75
2022/01/25 09:24:45;;;;;;;8.30;5.63;;;2.80;99.90;;;;;;4982722;28;20041;-75
2022/01/25 09:27:10;;;;;;;13.98;8.10;;;2.80;99.90;;;;;;4982492;28;20026;-76
2022/01/25 09:29:36;;;;;;;15.65;9.18;;;2.80;99.90;;;;;;4983579;28;20139;-76
2022/01/25 09:32:02;;;;;;;13.93;7.93;;;2.80;99.90;;;;;;4977181;28;20039;-75
2022/01/25 09:34:28;;;;;;;16.80;8.57;;;2.90;99.90;;;;;;4987363;28;20101;-76
2022/01/25 09:36:53;;;;;;;20.23;8.60;;;3.00;99.90;;;;;;4979196;28;20562;-78
2022/01/25 09:39:21;;;;;;;17.08;8.82;;;3.00;99.90;;;;;;4984942;28;20034;-77
2022/01/25 09:41:46;;;;;;;15.55;9.13;;;3.10;99.90;;;;;;4983246;28;20097;-78
2022/01/25 09:44:12;;;;;;;14.63;8.43;;;3.10;99.90;;;;;;4976034;28;20105;-78
2022/01/25 09:46:39;;;;;;;15.30;8.35;;;3.10;99.90;;;;;;4985722;28;20045;-77
2022/01/25 09:49:05;;;;;;;17.50;9.43;;;3.10;99.90;;;;;;4979687;28;20029;-75
2022/01/25 09:51:32;;;;;;;16.17;8.57;;;3.10;99.90;;;;;;4981928;28;20029;-77
2022/01/25 09:53:58;;;;;;;16.48;8.38;;;3.10;99.90;;;;;;4979521;28;20132;-76
2022/01/25 09:56:24;;;;;;;14.48;8.10;;;3.10;99.90;;;;;;4979614;28;20058;-77
2022/01/25 09:58:51;;;;;;;18.52;8.52;;;3.10;99.90;;;;;;4983301;28;20046;-78
2022/01/25 10:01:25;;;;;;;12.85;7.68;;;3.10;99.90;;;;;;4985261;28;20037;-76
2022/01/25 10:03:51;;;;;;;15.90;9.32;;;3.10;99.90;;;;;;4984608;28;20026;-77
2022/01/25 10:06:20;;;;;;;13.60;7.65;;;3.10;99.90;;;;;;4980326;28;20050;-77
2022/01/25 10:08:49;;;;;;;15.07;7.47;;;3.20;99.90;;;;;;4976531;28;20038;-76
2022/01/25 10:11:16;;;;;;;11.55;7.38;;;3.30;99.90;;;;;;4984395;28;20298;-76
2022/01/25 10:13:44;;;;;;;14.45;7.75;;;3.30;99.90;;;;;;4983606;28;20068;-75
2022/01/25 10:16:12;;;;;;;12.68;8.02;;;3.40;99.90;;;;;;4978707;28;20065;-76
2022/01/25 10:18:47;;;;;;;13.85;7.95;;;3.40;99.90;;;;;;4983805;28;20456;-76
2022/01/25 10:21:15;;;;;;;15.77;7.75;;;3.50;99.90;;;;;;4990078;28;20041;-78
2022/01/25 10:24:11;;;;;;;12.63;7.00;;;3.50;99.90;;;;;;4979681;28;20026;-75
2022/01/25 10:26:51;;;;;;;12.80;7.65;;;3.50;99.90;;;;;;4986814;28;20045;-75
2022/01/25 10:29:20;;;;;;;12.30;7.45;;;3.40;99.90;;;;;;4982998;28;20038;-75
2022/01/25 10:31:49;;;;;;;14.45;8.18;;;3.30;99.90;;;;;;4981501;28;20088;-76
2022/01/25 10:34:21;;;;;;;15.57;8.30;;;;;;;;;;4984059;28;20306;-74
2022/01/25 10:36:49;;;;;;;13.68;8.38;;;3.20;99.90;;;;;;4980395;28;20067;-75
2022/01/25 10:39:21;;;;;;;14.60;8.45;;;3.20;99.90;;;;;;4986292;28;20049;-75
2022/01/25 10:41:47;;;;;;;11.63;6.07;;;3.20;99.90;;;;;;4980197;28;20114;-74
2022/01/25 10:44:13;;;;;;;14.02;8.00;;;3.40;99.90;;;;;;4987610;28;20605;-74
2022/01/25 10:46:39;;;;;;;14.57;8.38;;;3.50;99.90;;;;;;4981124;28;20105;-74
2022/01/25 10:49:10;;;;;;;15.25;8.35;;;3.50;99.90;;;;;;4977991;28;20503;-74
2022/01/25 10:51:58;;;;;;;14.45;8.48;;;3.60;99.90;;;;;;4974778;28;20053;-74
2022/01/25 10:54:24;;;;;;;15.73;8.45;;;3.60;99.90;;;;;;4982505;28;20081;-74
2022/01/25 10:56:54;;;;;;;17.05;9.60;;;3.60;99.90;;;;;;4988514;28;20031;-74
2022/01/25 10:59:39;;;;;;;14.88;8.88;;;3.70;99.90;;;;;;4983970;28;20656;-74
2022/01/25 11:02:07;;;;;;;15.40;9.35;;;3.80;99.90;;;;;;4981570;28;20057;-75
2022/01/25 11:04:36;;;;;;;16.30;9.18;;;3.80;99.90;;;;;;4973223;28;20030;-75
2022/01/25 11:07:06;;;;;;;15.10;8.45;;;3.80;99.90;;;;;;4288587;28;10000794;-75
2022/01/25 11:09:40;;;;;;;13.60;8.15;;;3.80;99.90;;;;;;4978206;28;20030;-74
2022/01/25 11:12:13;;;;;;;15.90;9.00;;;3.80;99.90;;;;;;4979094;28;20027;-74
2022/01/25 11:14:56;;;;;;;17.63;8.95;;;3.80;99.90;;;;;;4981154;28;20069;-73
2022/01/25 11:17:26;;;;;;;17.50;9.65;;;3.80;99.90;;;;;;4981726;28;20100;-74
2022/01/25 11:19:53;;;;;;;17.10;9.70;;;3.80;99.90;;;;;;4983572;28;20499;-73
2022/01/25 11:22:20;;;;;;;16.00;9.18;;;3.80;99.90;;;;;;4984634;28;20120;-73
2022/01/25 11:24:58;;;;;;;16.17;9.13;;;3.80;99.90;;;;;;4985565;28;20026;-74
2022/01/25 11:27:26;;;;;;;16.35;9.25;;;3.70;99.90;;;;;;4979372;28;20035;-74
2022/01/25 11:29:54;;;;;;;19.80;9.85;;;3.70;99.90;;;;;;4972874;28;20057;-73
2022/01/25 11:32:25;;;;;;;15.55;9.45;;;3.90;99.90;;;;;;4972224;28;20506;-74
2022/01/25 11:34:52;;;;;;;20.02;9.88;;;3.90;99.90;;;;;;4295207;28;10000788;-74
2022/01/25 11:37:19;;;;;;;18.50;9.50;;;4.00;99.90;;;;;;4975020;28;20073;-74
2022/01/25 11:39:51;;;;;;;15.88;9.63;;;4.00;99.90;;;;;;4977555;28;20228;-74
2022/01/25 11:42:23;;;;;;;16.83;10.40;;;4.00;99.90;;;;;;4980947;28;20147;-74
2022/01/25 11:44:54;;;;;;;16.05;8.90;;;4.00;99.90;;;;;;4974938;28;20030;-75
2022/01/25 11:47:32;;;;;;;18.48;10.40;;;3.90;99.90;;;;;;4975178;28;20065;-75
2022/01/25 11:50:11;;;;;;;23.80;12.20;;;3.90;99.90;;;;;;4980070;28;21231;-74
2022/01/25 11:52:49;;;;;;;20.02;11.13;;;3.90;99.90;;;;;;4975272;28;20481;-74
2022/01/25 11:55:28;;;;;;;23.92;14.52;;;4.00;99.90;;;;;;4982875;28;20581;-74
2022/01/25 11:58:07;;;;;;;22.98;13.25;;;4.00;99.90;;;;;;4979805;28;20491;-75
2022/01/25 12:00:44;;;;;;;23.25;13.50;;;4.00;99.90;;;;;;4971980;28;20475;-75
2022/01/25 12:03:28;;;;;;;21.20;12.05;;;4.00;99.90;;;;;;4980812;28;20034;-75
2022/01/25 12:06:05;;;;;;;23.42;13.10;;;4.10;99.90;;;;;;4986158;28;20050;-74
2022/01/25 12:09:21;;;;;;;20.70;12.10;;;4.00;99.90;;;;;;4982776;28;20593;-74
2022/01/25 12:11:49;;;;;;;26.85;13.02;;;3.90;99.90;;;;;;4975530;28;20947;-74
2022/01/25 12:14:32;;;;;;;21.52;11.68;;;3.90;99.90;;;;;;4978931;28;20030;-74
2022/01/25 12:17:03;;;;;;;20.85;11.65;;;3.70;99.90;;;;;;4985187;28;20030;-74
2022/01/25 12:19:48;;;;;;;22.17;11.82;;;3.60;99.90;;;;;;4976059;28;20090;-74
2022/01/25 12:22:34;;;;;;;22.30;12.75;;;3.60;99.90;;;;;;4971769;28;20101;-74
2022/01/25 12:27:46;;;;;;;24.92;14.32;;;3.50;99.90;;;;;;4972149;28;20043;-74
2022/01/25 12:30:18;;;;;;;26.08;14.27;;;3.50;99.90;;;;;;4980500;28;20122;-74
2022/01/25 12:33:02;;;;;;;23.65;13.38;;;3.50;99.90;;;;;;4975349;28;20034;-76
2022/01/25 12:35:40;;;;;;;25.83;13.38;;;3.60;99.90;;;;;;4974641;28;20410;-75
2022/01/25 12:38:11;;;;;;;25.27;13.40;;;3.60;99.90;;;;;;4980820;28;20089;-75
2022/01/25 12:40:51;;;;;;;22.92;12.95;;;3.70;99.90;;;;;;4983057;28;20038;-75
2022/01/25 12:43:24;;;;;;;22.80;12.65;;;3.80;99.90;;;;;;4976972;28;20498;-75
2022/01/25 12:45:53;;;;;;;22.73;12.13;;;3.80;99.90;;;;;;4976540;28;20695;-74
2022/01/25 12:48:25;;;;;;;20.92;12.13;;;3.70;99.90;;;;;;4983367;28;20037;-75
2022/01/25 12:50:52;;;;;;;25.23;13.15;;;3.60;99.90;;;;;;4976493;28;20050;-74
2022/01/25 12:53:22;;;;;;;25.35;13.23;;;3.70;99.90;;;;;;4980957;28;20034;-74
2022/01/25 12:55:50;;;;;;;24.40;13.73;;;3.70;99.90;;;;;;4984297;28;20307;-74
2022/01/25 12:58:22;;;;;;;24.02;13.43;;;3.70;99.90;;;;;;4981165;28;20321;-73
2022/01/25 13:00:52;;;;;;;22.88;13.15;;;3.70;99.90;;;;;;4981173;28;20783;-73
2022/01/25 13:03:21;;;;;;;23.40;13.57;;;3.70;99.90;;;;;;4977132;28;20030;-74
2022/01/25 13:05:53;;;;;;;22.63;12.77;;;3.70;99.90;;;;;;4291214;28;10001181;-72
2022/01/25 13:08:27;;;;;;;22.05;12.82;;;3.80;99.90;;;;;;4976107;28;20069;-71
2022/01/25 13:11:13;;;;;;;23.52;12.32;;;3.80;99.90;;;;;;4987546;28;20121;-72
2022/01/25 13:16:48;;;;;;;22.83;12.52;;;3.80;99.90;;;;;;4981334;28;20038;-72
2022/01/25 13:19:37;;;;;;;24.27;11.40;;;3.70;99.90;;;;;;4991319;28;20049;-72
2022/01/25 13:22:09;;;;;;;24.58;11.82;;;3.60;99.90;;;;;;4985162;28;20038;-71
2022/01/25 13:24:42;;;;;;;19.58;11.55;;;3.60;99.90;;;;;;4998015;28;20065;-73
2022/01/25 13:27:12;;;;;;;23.10;12.85;;;3.60;99.90;;;;;;4987421;28;20068;-72
2022/01/25 13:32:28;;;;;;;23.35;11.45;;;3.50;99.90;;;;;;4990844;28;20060;-72
2022/01/25 13:35:00;;;;;;;21.15;11.80;;;3.50;99.90;;;;;;4990280;28;20128;-72
2022/01/25 13:37:26;;;;;;;19.63;11.23;;;3.40;99.90;;;;;;4995968;28;20042;-71
2022/01/25 13:39:59;;;;;;;22.00;12.50;;;3.40;99.90;;;;;;4972616;28;20485;-71
2022/01/25 13:42:41;;;;;;;18.83;10.40;;;3.50;99.90;;;;;;4980787;28;20525;-72
2022/01/25 13:47:59;;;;;;;18.23;10.40;;;3.50;99.90;;;;;;4972108;28;20044;-71
2022/01/25 13:50:26;;;;;;;19.85;10.45;;;3.40;99.90;;;;;;4976507;28;20035;-71
2022/01/25 13:52:52;;;;;;;22.25;10.13;;;3.30;99.90;;;;;;4984957;28;20026;-72
2022/01/25 13:55:17;;;;;;;20.45;11.55;;;3.20;99.90;;;;;;4975705;28;20096;-72
2022/01/25 13:57:43;;;;;;;20.30;10.48;;;3.20;99.90;;;;;;4976286;28;20406;-72
2022/01/25 14:00:11;;;;;;;18.90;10.20;;;3.20;99.90;;;;;;4978947;28;20486;-73
2022/01/25 14:02:37;;;;;;;20.75;10.52;;;3.10;99.90;;;;;;4976996;28;20377;-72
2022/01/25 14:05:03;;;;;;;20.88;11.32;;;3.10;99.90;;;;;;4975338;28;20030;-71
2022/01/25 14:07:36;;;;;;;21.52;10.90;;;3.10;99.90;;;;;;4979521;28;20031;-73
2022/01/25 14:10:11;;;;;;;16.98;7.78;;;3.10;99.90;;;;;;4981038;28;20059;-71
2022/01/25 14:23:47;;;;;;;19.90;10.57;;;3.10;99.90;;;;;;4973628;28;20037;-70
2022/01/25 14:26:14;;;;;;;21.10;11.13;;;3.10;99.90;;;;;;4977193;28;20034;-73
2022/01/25 14:28:52;;;;;;;22.23;11.57;;;3.00;99.90;;;;;;4974928;28;20085;-72
2022/01/25 14:31:24;;;;;;;20.20;11.30;;;3.00;99.90;;;;;;4968745;28;20035;-72
2022/01/25 14:33:55;;;;;;;15.98;9.25;;;2.90;99.90;;;;;;4968321;28;20039;-72
2022/01/25 14:36:23;;;;;;;20.23;11.30;;;2.90;99.90;;;;;;4971838;28;20046;-73
2022/01/25 14:38:49;;;;;;;16.67;10.23;;;2.90;99.90;;;;;;4977170;28;20048;-73